sensor_id;sensor_type;location;lat;lon;timestamp;pressure;altitude;pressure_sealevel;temperature;humidity
18697;BME280;22617;43.690;27.956;2023-05-02T00:02:21;99456.13;;;9.91;62.32
18697;BME280;22617;43.690;27.956;2023-05-02T00:07:25;99456.84;;;9.67;62.51
18697;BME280;22617;43.690;27.956;2023-05-02T00:12:30;99452.63;;;9.86;62.77
18697;BME280;22617;43.690;27.956;2023-05-02T00:17:34;99449.06;;;9.75;62.56
18697;BME280;22617;43.690;27.956;2023-05-02T00:22:38;99464.66;;;9.69;62.89
18697;BME280;22617;43.690;27.956;2023-05-02T00:27:43;99471.53;;;9.60;63.56
18697;BME280;22617;43.690;27.956;2023-05-02T00:32:48;99473.25;;;9.60;63.10
18697;BME280;22617;43.690;27.956;2023-05-02T00:37:52;99470.63;;;9.54;62.86
18697;BME280;22617;43.690;27.956;2023-05-02T00:42:57;99469.72;;;9.50;63.61
18697;BME280;22617;43.690;27.956;2023-05-02T00:48:00;99477.44;;;9.41;64.27
18697;BME280;22617;43.690;27.956;2023-05-02T00:53:04;99470.31;;;9.17;64.73
18697;BME280;22617;43.690;27.956;2023-05-02T00:58:11;99471.09;;;9.12;64.48
18697;BME280;22617;43.690;27.956;2023-05-02T01:03:19;99480.63;;;9.08;64.64
18697;BME280;22617;43.690;27.956;2023-05-02T01:08:34;99481.34;;;8.94;64.99
18697;BME280;22617;43.690;27.956;2023-05-02T01:13:44;99479.63;;;8.94;64.39
18697;BME280;22617;43.690;27.956;2023-05-02T01:18:50;99479.66;;;8.99;63.95
18697;BME280;22617;43.690;27.956;2023-05-02T01:24:02;99476.91;;;8.84;64.10
18697;BME280;22617;43.690;27.956;2023-05-02T01:29:10;99474.34;;;8.88;63.90
18697;BME280;22617;43.690;27.956;2023-05-02T01:34:18;99478.56;;;8.79;64.10
18697;BME280;22617;43.690;27.956;2023-05-02T01:39:23;99476.13;;;8.92;63.84
18697;BME280;22617;43.690;27.956;2023-05-02T01:44:31;99477.94;;;8.99;64.42
18697;BME280;22617;43.690;27.956;2023-05-02T01:49:37;99473.59;;;8.97;64.95
18697;BME280;22617;43.690;27.956;2023-05-02T01:54:43;99472.78;;;9.04;63.51
18697;BME280;22617;43.690;27.956;2023-05-02T01:59:49;99466.59;;;8.93;65.08
18697;BME280;22617;43.690;27.956;2023-05-02T02:04:55;99464.03;;;8.96;65.39
18697;BME280;22617;43.690;27.956;2023-05-02T02:09:59;99475.00;;;8.69;65.99
18697;BME280;22617;43.690;27.956;2023-05-02T02:15:17;99466.38;;;8.71;65.75
18697;BME280;22617;43.690;27.956;2023-05-02T02:20:22;99469.81;;;8.67;65.22
18697;BME280;22617;43.690;27.956;2023-05-02T02:25:26;99465.44;;;8.65;66.05
18697;BME280;22617;43.690;27.956;2023-05-02T02:30:31;99467.22;;;8.67;65.71
18697;BME280;22617;43.690;27.956;2023-05-02T02:35:39;99462.94;;;8.74;64.53
18697;BME280;22617;43.690;27.956;2023-05-02T02:40:46;99472.34;;;8.61;65.28
18697;BME280;22617;43.690;27.956;2023-05-02T02:45:58;99475.75;;;8.57;65.94
18697;BME280;22617;43.690;27.956;2023-05-02T02:51:09;99474.00;;;8.56;66.01
18697;BME280;22617;43.690;27.956;2023-05-02T02:56:23;99483.16;;;8.28;65.29
18697;BME280;22617;43.690;27.956;2023-05-02T03:01:32;99484.94;;;8.31;66.00
18697;BME280;22617;43.690;27.956;2023-05-02T03:06:37;99488.63;;;8.48;65.73
18697;BME280;22617;43.690;27.956;2023-05-02T03:11:43;99498.22;;;8.52;65.86
18697;BME280;22617;43.690;27.956;2023-05-02T03:16:50;99497.50;;;8.68;65.06
18697;BME280;22617;43.690;27.956;2023-05-02T03:21:54;99503.41;;;8.52;65.68
18697;BME280;22617;43.690;27.956;2023-05-02T03:26:58;99504.38;;;8.62;65.37
18697;BME280;22617;43.690;27.956;2023-05-02T03:32:09;99510.38;;;8.56;66.02
18697;BME280;22617;43.690;27.956;2023-05-02T03:37:15;99508.69;;;8.60;66.13
18697;BME280;22617;43.690;27.956;2023-05-02T03:42:20;99519.91;;;8.56;66.94
18697;BME280;22617;43.690;27.956;2023-05-02T03:47:25;99527.66;;;8.54;67.71
18697;BME280;22617;43.690;27.956;2023-05-02T03:52:30;99535.59;;;8.65;68.03
18697;BME280;22617;43.690;27.956;2023-05-02T03:57:33;99537.72;;;8.99;67.83
18697;BME280;22617;43.690;27.956;2023-05-02T04:02:38;99542.31;;;9.23;68.10
18697;BME280;22617;43.690;27.956;2023-05-02T04:07:46;99546.03;;;9.49;67.77
18697;BME280;22617;43.690;27.956;2023-05-02T04:12:50;99546.31;;;9.83;66.43
18697;BME280;22617;43.690;27.956;2023-05-02T04:17:56;99543.91;;;10.13;65.71
18697;BME280;22617;43.690;27.956;2023-05-02T04:23:00;99546.75;;;10.40;64.49
18697;BME280;22617;43.690;27.956;2023-05-02T04:28:04;99552.97;;;10.73;64.49
18697;BME280;22617;43.690;27.956;2023-05-02T04:33:10;99551.34;;;11.02;63.41
18697;BME280;22617;43.690;27.956;2023-05-02T04:38:14;99558.34;;;11.33;64.08
18697;BME280;22617;43.690;27.956;2023-05-02T04:43:20;99555.81;;;11.68;63.56
18697;BME280;22617;43.690;27.956;2023-05-02T04:48:32;99558.44;;;12.03;59.47
18697;BME280;22617;43.690;27.956;2023-05-02T04:53:36;99555.72;;;12.47;57.98
18697;BME280;22617;43.690;27.956;2023-05-02T04:58:40;99547.78;;;12.85;56.13
18697;BME280;22617;43.690;27.956;2023-05-02T05:03:46;99555.47;;;13.23;55.75
18697;BME280;22617;43.690;27.956;2023-05-02T05:08:51;99558.66;;;13.66;55.67
18697;BME280;22617;43.690;27.956;2023-05-02T05:13:56;99554.09;;;13.88;55.13
18697;BME280;22617;43.690;27.956;2023-05-02T05:19:03;99553.84;;;14.18;54.90
18697;BME280;22617;43.690;27.956;2023-05-02T05:24:06;99564.88;;;14.51;53.99
18697;BME280;22617;43.690;27.956;2023-05-02T05:29:10;99565.44;;;14.80;54.76
18697;BME280;22617;43.690;27.956;2023-05-02T05:34:17;99562.53;;;15.01;52.72
18697;BME280;22617;43.690;27.956;2023-05-02T05:39:23;99565.69;;;15.29;52.53
18697;BME280;22617;43.690;27.956;2023-05-02T05:44:29;99574.94;;;15.56;50.93
18697;BME280;22617;43.690;27.956;2023-05-02T05:49:35;99569.16;;;15.88;51.10
18697;BME280;22617;43.690;27.956;2023-05-02T05:54:43;99573.94;;;16.17;50.20
18697;BME280;22617;43.690;27.956;2023-05-02T05:59:47;99581.63;;;16.30;49.47
18697;BME280;22617;43.690;27.956;2023-05-02T06:04:53;99587.31;;;16.53;48.23
18697;BME280;22617;43.690;27.956;2023-05-02T06:09:59;99584.38;;;16.72;47.70
18697;BME280;22617;43.690;27.956;2023-05-02T06:15:06;99580.75;;;17.19;48.77
18697;BME280;22617;43.690;27.956;2023-05-02T06:20:12;99587.72;;;17.63;47.89
18697;BME280;22617;43.690;27.956;2023-05-02T06:25:17;99575.63;;;17.90;45.87
18697;BME280;22617;43.690;27.956;2023-05-02T06:30:21;99571.72;;;18.40;46.77
18697;BME280;22617;43.690;27.956;2023-05-02T06:35:26;99582.81;;;18.52;46.37
18697;BME280;22617;43.690;27.956;2023-05-02T06:40:29;99592.59;;;18.83;45.13
18697;BME280;22617;43.690;27.956;2023-05-02T06:45:33;99588.09;;;19.15;47.11
18697;BME280;22617;43.690;27.956;2023-05-02T06:50:38;99598.41;;;19.55;45.38
18697;BME280;22617;43.690;27.956;2023-05-02T06:55:42;99597.81;;;19.74;47.13
18697;BME280;22617;43.690;27.956;2023-05-02T07:00:46;99598.13;;;19.91;45.09
18697;BME280;22617;43.690;27.956;2023-05-02T07:05:52;99606.41;;;20.08;45.25
18697;BME280;22617;43.690;27.956;2023-05-02T07:10:56;99604.81;;;20.29;45.50
18697;BME280;22617;43.690;27.956;2023-05-02T07:15:59;99604.94;;;20.52;42.99
18697;BME280;22617;43.690;27.956;2023-05-02T07:21:05;99605.19;;;20.44;44.08
18697;BME280;22617;43.690;27.956;2023-05-02T07:26:08;99605.78;;;20.77;43.25
18697;BME280;22617;43.690;27.956;2023-05-02T07:31:12;99612.16;;;21.21;42.65
18697;BME280;22617;43.690;27.956;2023-05-02T07:36:20;99616.19;;;21.55;44.12
18697;BME280;22617;43.690;27.956;2023-05-02T07:41:24;99610.41;;;21.89;45.78
18697;BME280;22617;43.690;27.956;2023-05-02T07:46:27;99615.00;;;22.07;42.11
18697;BME280;22617;43.690;27.956;2023-05-02T07:51:33;99611.13;;;22.36;40.27
18697;BME280;22617;43.690;27.956;2023-05-02T07:56:36;99610.56;;;22.29;40.86
18697;BME280;22617;43.690;27.956;2023-05-02T08:01:40;99621.47;;;22.84;41.19
18697;BME280;22617;43.690;27.956;2023-05-02T08:06:46;99618.13;;;22.38;39.78
18697;BME280;22617;43.690;27.956;2023-05-02T08:11:49;99632.66;;;22.50;39.28
18697;BME280;22617;43.690;27.956;2023-05-02T08:16:53;99627.06;;;22.98;40.02
18697;BME280;22617;43.690;27.956;2023-05-02T08:21:58;99617.00;;;23.25;40.52
18697;BME280;22617;43.690;27.956;2023-05-02T08:27:02;99614.06;;;23.87;38.46
18697;BME280;22617;43.690;27.956;2023-05-02T08:32:06;99613.72;;;24.30;38.12
18697;BME280;22617;43.690;27.956;2023-05-02T08:37:11;99611.69;;;23.81;38.26
18697;BME280;22617;43.690;27.956;2023-05-02T08:42:15;99625.94;;;23.22;37.13
18697;BME280;22617;43.690;27.956;2023-05-02T08:47:19;99610.59;;;23.85;37.52
18697;BME280;22617;43.690;27.956;2023-05-02T08:52:25;99600.53;;;24.27;38.66
18697;BME280;22617;43.690;27.956;2023-05-02T08:57:29;99606.59;;;24.12;35.59
18697;BME280;22617;43.690;27.956;2023-05-02T09:02:47;99599.53;;;24.30;36.36
18697;BME280;22617;43.690;27.956;2023-05-02T09:07:56;99616.44;;;23.93;35.49
18697;BME280;22617;43.690;27.956;2023-05-02T09:13:26;99610.03;;;24.50;36.92
18697;BME280;22617;43.690;27.956;2023-05-02T09:18:31;99603.59;;;24.37;36.38
18697;BME280;22617;43.690;27.956;2023-05-02T09:23:38;99595.44;;;24.57;35.61
18697;BME280;22617;43.690;27.956;2023-05-02T09:28:43;99599.22;;;25.85;38.16
18697;BME280;22617;43.690;27.956;2023-05-02T09:33:48;99596.47;;;25.55;35.62
18697;BME280;22617;43.690;27.956;2023-05-02T09:39:07;99600.22;;;25.02;34.31
18697;BME280;22617;43.690;27.956;2023-05-02T09:44:14;99599.16;;;25.53;36.88
18697;BME280;22617;43.690;27.956;2023-05-02T09:49:38;99589.91;;;25.92;37.41
18697;BME280;22617;43.690;27.956;2023-05-02T09:54:43;99598.06;;;25.42;34.15
18697;BME280;22617;43.690;27.956;2023-05-02T09:59:58;99581.81;;;25.13;33.81
18697;BME280;22617;43.690;27.956;2023-05-02T10:05:03;99591.88;;;25.73;34.63
18697;BME280;22617;43.690;27.956;2023-05-02T10:10:16;99593.38;;;25.30;36.63
18697;BME280;22617;43.690;27.956;2023-05-02T10:15:21;99579.47;;;26.03;38.18
18697;BME280;22617;43.690;27.956;2023-05-02T10:20:30;99576.19;;;26.43;36.19
18697;BME280;22617;43.690;27.956;2023-05-02T10:25:36;99587.41;;;25.89;36.33
18697;BME280;22617;43.690;27.956;2023-05-02T10:30:40;99577.44;;;25.61;36.04
18697;BME280;22617;43.690;27.956;2023-05-02T10:35:44;99565.56;;;26.28;34.36
18697;BME280;22617;43.690;27.956;2023-05-02T10:40:58;99569.97;;;24.52;37.79
18697;BME280;22617;43.690;27.956;2023-05-02T10:46:03;99579.19;;;25.45;37.76
18697;BME280;22617;43.690;27.956;2023-05-02T10:51:27;99572.47;;;24.55;37.89
18697;BME280;22617;43.690;27.956;2023-05-02T10:56:33;99559.72;;;24.94;38.20
18697;BME280;22617;43.690;27.956;2023-05-02T11:01:37;99571.09;;;25.31;37.83
18697;BME280;22617;43.690;27.956;2023-05-02T11:07:16;99566.97;;;25.41;39.04
18697;BME280;22617;43.690;27.956;2023-05-02T11:12:43;99562.91;;;25.81;37.38
18697;BME280;22617;43.690;27.956;2023-05-02T11:17:58;99564.56;;;25.83;37.01
18697;BME280;22617;43.690;27.956;2023-05-02T11:23:19;99564.66;;;25.66;37.22
18697;BME280;22617;43.690;27.956;2023-05-02T11:28:43;99570.16;;;25.32;37.27
18697;BME280;22617;43.690;27.956;2023-05-02T11:33:54;99572.63;;;24.35;37.92
18697;BME280;22617;43.690;27.956;2023-05-02T11:38:59;99568.81;;;23.68;38.50
18697;BME280;22617;43.690;27.956;2023-05-02T11:44:04;99555.44;;;24.57;38.90
18697;BME280;22617;43.690;27.956;2023-05-02T11:49:08;99548.94;;;24.63;38.82
18697;BME280;22617;43.690;27.956;2023-05-02T11:54:18;99541.25;;;24.74;39.11
18697;BME280;22617;43.690;27.956;2023-05-02T11:59:24;99540.59;;;24.86;38.76
18697;BME280;22617;43.690;27.956;2023-05-02T12:04:27;99546.69;;;24.55;39.87
18697;BME280;22617;43.690;27.956;2023-05-02T12:09:32;99543.34;;;23.99;40.31
18697;BME280;22617;43.690;27.956;2023-05-02T12:14:37;99557.09;;;24.43;40.57
18697;BME280;22617;43.690;27.956;2023-05-02T12:19:42;99553.28;;;24.81;40.30
18697;BME280;22617;43.690;27.956;2023-05-02T12:24:47;99547.84;;;24.32;40.17
18697;BME280;22617;43.690;27.956;2023-05-02T12:29:52;99562.53;;;23.88;41.11
18697;BME280;22617;43.690;27.956;2023-05-02T12:34:58;99550.47;;;24.17;41.75
18697;BME280;22617;43.690;27.956;2023-05-02T12:40:14;99551.53;;;23.77;41.41
18697;BME280;22617;43.690;27.956;2023-05-02T12:50:39;99560.03;;;23.10;41.70
18697;BME280;22617;43.690;27.956;2023-05-02T12:55:46;99558.13;;;22.93;41.81
18697;BME280;22617;43.690;27.956;2023-05-02T13:00:50;99553.19;;;23.23;42.77
18697;BME280;22617;43.690;27.956;2023-05-02T13:05:56;99557.16;;;23.15;42.11
18697;BME280;22617;43.690;27.956;2023-05-02T13:11:01;99550.13;;;23.51;41.39
18697;BME280;22617;43.690;27.956;2023-05-02T13:16:06;99560.69;;;23.34;42.32
18697;BME280;22617;43.690;27.956;2023-05-02T13:21:14;99554.53;;;22.94;42.91
18697;BME280;22617;43.690;27.956;2023-05-02T13:26:18;99558.31;;;22.69;42.21
18697;BME280;22617;43.690;27.956;2023-05-02T13:31:22;99552.34;;;22.84;41.97
18697;BME280;22617;43.690;27.956;2023-05-02T13:36:28;99555.31;;;22.57;41.44
18697;BME280;22617;43.690;27.956;2023-05-02T13:41:33;99555.63;;;22.70;42.00
18697;BME280;22617;43.690;27.956;2023-05-02T13:46:37;99544.94;;;22.51;41.07
18697;BME280;22617;43.690;27.956;2023-05-02T13:51:43;99544.59;;;22.18;41.63
18697;BME280;22617;43.690;27.956;2023-05-02T13:56:47;99549.81;;;22.00;41.96
18697;BME280;22617;43.690;27.956;2023-05-02T14:01:51;99554.66;;;21.89;42.42
18697;BME280;22617;43.690;27.956;2023-05-02T14:06:58;99565.06;;;21.95;42.98
18697;BME280;22617;43.690;27.956;2023-05-02T14:12:03;99557.75;;;21.56;42.64
18697;BME280;22617;43.690;27.956;2023-05-02T14:17:07;99561.47;;;21.52;43.92
18697;BME280;22617;43.690;27.956;2023-05-02T14:22:14;99568.41;;;21.33;43.28
18697;BME280;22617;43.690;27.956;2023-05-02T14:27:20;99565.13;;;21.26;44.31
18697;BME280;22617;43.690;27.956;2023-05-02T14:32:25;99563.34;;;21.27;45.01
18697;BME280;22617;43.690;27.956;2023-05-02T14:37:32;99559.09;;;20.98;44.92
18697;BME280;22617;43.690;27.956;2023-05-02T14:42:49;99558.09;;;21.01;44.66
18697;BME280;22617;43.690;27.956;2023-05-02T14:47:57;99554.03;;;20.67;45.12
18697;BME280;22617;43.690;27.956;2023-05-02T14:53:03;99555.63;;;20.48;45.37
18697;BME280;22617;43.690;27.956;2023-05-02T14:58:06;99553.88;;;20.22;45.62
18697;BME280;22617;43.690;27.956;2023-05-02T15:03:11;99557.63;;;19.89;45.70
18697;BME280;22617;43.690;27.956;2023-05-02T15:08:16;99555.34;;;19.78;45.76
18697;BME280;22617;43.690;27.956;2023-05-02T15:13:20;99565.69;;;19.58;46.00
18697;BME280;22617;43.690;27.956;2023-05-02T15:18:24;99556.47;;;19.42;45.96
18697;BME280;22617;43.690;27.956;2023-05-02T15:23:29;99562.06;;;19.33;45.41
18697;BME280;22617;43.690;27.956;2023-05-02T15:28:35;99567.19;;;19.08;45.59
18697;BME280;22617;43.690;27.956;2023-05-02T15:33:40;99571.28;;;18.89;45.69
18697;BME280;22617;43.690;27.956;2023-05-02T15:38:47;99570.06;;;18.69;46.16
18697;BME280;22617;43.690;27.956;2023-05-02T15:43:53;99565.72;;;18.67;46.61
18697;BME280;22617;43.690;27.956;2023-05-02T15:49:00;99565.84;;;18.62;47.04
18697;BME280;22617;43.690;27.956;2023-05-02T15:54:08;99571.00;;;18.33;46.73
18697;BME280;22617;43.690;27.956;2023-05-02T15:59:27;99574.69;;;17.94;46.36
18697;BME280;22617;43.690;27.956;2023-05-02T16:04:32;99568.97;;;17.75;46.00
18697;BME280;22617;43.690;27.956;2023-05-02T16:09:41;99572.09;;;17.54;45.91
18697;BME280;22617;43.690;27.956;2023-05-02T16:14:51;99572.31;;;17.43;45.99
18697;BME280;22617;43.690;27.956;2023-05-02T16:19:58;99557.34;;;17.45;45.77
18697;BME280;22617;43.690;27.956;2023-05-02T16:25:23;99569.03;;;17.32;46.20
18697;BME280;22617;43.690;27.956;2023-05-02T16:30:34;99561.66;;;17.09;45.51
18697;BME280;22617;43.690;27.956;2023-05-02T16:35:43;99562.94;;;16.90;45.48
18697;BME280;22617;43.690;27.956;2023-05-02T16:41:02;99571.13;;;16.75;46.10
18697;BME280;22617;43.690;27.956;2023-05-02T16:46:13;99575.13;;;16.48;46.01
18697;BME280;22617;43.690;27.956;2023-05-02T16:51:25;99577.19;;;16.32;46.53
18697;BME280;22617;43.690;27.956;2023-05-02T16:56:37;99587.22;;;16.09;47.30
18697;BME280;22617;43.690;27.956;2023-05-02T17:01:44;99583.16;;;15.90;48.05
18697;BME280;22617;43.690;27.956;2023-05-02T17:06:49;99589.38;;;15.86;48.70
18697;BME280;22617;43.690;27.956;2023-05-02T17:12:02;99595.81;;;15.66;49.82
18697;BME280;22617;43.690;27.956;2023-05-02T17:17:08;99602.13;;;15.50;50.70
18697;BME280;22617;43.690;27.956;2023-05-02T17:22:14;99603.47;;;15.17;51.08
18697;BME280;22617;43.690;27.956;2023-05-02T17:27:22;99610.56;;;15.09;51.63
18697;BME280;22617;43.690;27.956;2023-05-02T17:32:29;99618.72;;;14.87;52.48
18697;BME280;22617;43.690;27.956;2023-05-02T17:37:41;99621.38;;;14.82;53.26
18697;BME280;22617;43.690;27.956;2023-05-02T17:42:52;99636.50;;;14.60;54.16
18697;BME280;22617;43.690;27.956;2023-05-02T17:48:03;99647.25;;;14.28;55.29
18697;BME280;22617;43.690;27.956;2023-05-02T17:53:10;99659.66;;;14.07;56.48
18697;BME280;22617;43.690;27.956;2023-05-02T17:58:23;99668.50;;;13.95;57.48
18697;BME280;22617;43.690;27.956;2023-05-02T18:03:49;99672.97;;;13.81;58.35
18697;BME280;22617;43.690;27.956;2023-05-02T18:10:03;99680.81;;;13.81;59.17
18697;BME280;22617;43.690;27.956;2023-05-02T18:15:17;99687.06;;;13.54;59.67
18697;BME280;22617;43.690;27.956;2023-05-02T18:20:37;99694.97;;;13.46;60.23
18697;BME280;22617;43.690;27.956;2023-05-02T18:25:50;99698.56;;;13.23;60.62
18697;BME280;22617;43.690;27.956;2023-05-02T19:34:13;99660.34;;;12.15;67.78
18697;BME280;22617;43.690;27.956;2023-05-02T19:41:18;99645.53;;;11.98;68.82
18697;BME280;22617;43.690;27.956;2023-05-02T19:47:32;99634.19;;;12.06;69.51
18697;BME280;22617;43.690;27.956;2023-05-02T19:53:34;99624.63;;;11.79;70.74
18697;BME280;22617;43.690;27.956;2023-05-02T19:59:41;99617.66;;;11.92;71.32
18697;BME280;22617;43.690;27.956;2023-05-02T20:05:23;99615.03;;;11.86;72.20
18697;BME280;22617;43.690;27.956;2023-05-02T20:11:57;99613.31;;;11.79;72.67
18697;BME280;22617;43.690;27.956;2023-05-02T20:16:51;99600.22;;;11.73;73.20
18697;BME280;22617;43.690;27.956;2023-05-02T20:22:05;99605.41;;;11.71;73.59
18697;BME280;22617;43.690;27.956;2023-05-02T20:27:10;99601.03;;;11.70;74.51
18697;BME280;22617;43.690;27.956;2023-05-02T20:32:15;99612.38;;;11.60;74.98
18697;BME280;22617;43.690;27.956;2023-05-02T20:37:24;99620.16;;;11.45;75.61
18697;BME280;22617;43.690;27.956;2023-05-02T20:42:30;99625.34;;;11.37;76.64
18697;BME280;22617;43.690;27.956;2023-05-02T20:47:36;99636.63;;;11.20;77.14
18697;BME280;22617;43.690;27.956;2023-05-02T20:52:44;99639.13;;;10.96;77.54
18697;BME280;22617;43.690;27.956;2023-05-02T20:57:49;99629.53;;;10.94;78.39
18697;BME280;22617;43.690;27.956;2023-05-02T21:02:57;99630.47;;;11.07;78.47
18697;BME280;22617;43.690;27.956;2023-05-02T21:08:07;99636.44;;;10.82;78.35
18697;BME280;22617;43.690;27.956;2023-05-02T21:13:12;99646.78;;;10.70;80.05
18697;BME280;22617;43.690;27.956;2023-05-02T21:18:17;99661.66;;;10.81;79.17
18697;BME280;22617;43.690;27.956;2023-05-02T21:23:23;99668.59;;;10.81;79.70
18697;BME280;22617;43.690;27.956;2023-05-02T21:28:29;99658.25;;;10.96;80.94
18697;BME280;22617;43.690;27.956;2023-05-02T21:33:34;99667.69;;;10.76;81.35
18697;BME280;22617;43.690;27.956;2023-05-02T21:38:40;99671.13;;;10.67;82.44
18697;BME280;22617;43.690;27.956;2023-05-02T21:43:44;99662.53;;;10.82;82.43
18697;BME280;22617;43.690;27.956;2023-05-02T21:48:48;99650.31;;;10.76;82.37
18697;BME280;22617;43.690;27.956;2023-05-02T21:53:54;99659.91;;;10.82;82.62
18697;BME280;22617;43.690;27.956;2023-05-02T21:58:58;99641.72;;;10.91;82.43
18697;BME280;22617;43.690;27.956;2023-05-02T22:04:04;99639.75;;;10.52;83.10
18697;BME280;22617;43.690;27.956;2023-05-02T22:09:10;99627.63;;;10.60;84.16
18697;BME280;22617;43.690;27.956;2023-05-02T22:14:14;99619.84;;;10.66;84.84
18697;BME280;22617;43.690;27.956;2023-05-02T22:19:20;99614.59;;;10.59;84.83
18697;BME280;22617;43.690;27.956;2023-05-02T22:24:26;99614.50;;;10.43;85.47
18697;BME280;22617;43.690;27.956;2023-05-02T22:29:31;99634.56;;;10.57;85.42
18697;BME280;22617;43.690;27.956;2023-05-02T22:34:35;99636.16;;;10.38;85.44
18697;BME280;22617;43.690;27.956;2023-05-02T22:39:41;99632.63;;;10.31;85.90
18697;BME280;22617;43.690;27.956;2023-05-02T22:44:47;99637.88;;;10.34;86.12
18697;BME280;22617;43.690;27.956;2023-05-02T22:49:56;99632.66;;;10.30;86.91
18697;BME280;22617;43.690;27.956;2023-05-02T22:55:03;99642.00;;;10.06;87.50
18697;BME280;22617;43.690;27.956;2023-05-02T23:00:11;99642.97;;;10.16;88.05
18697;BME280;22617;43.690;27.956;2023-05-02T23:05:16;99648.94;;;10.09;87.85
18697;BME280;22617;43.690;27.956;2023-05-02T23:10:22;99643.72;;;10.09;88.62
18697;BME280;22617;43.690;27.956;2023-05-02T23:15:27;99642.09;;;10.17;88.32
18697;BME280;22617;43.690;27.956;2023-05-02T23:20:32;99649.13;;;10.26;87.59
18697;BME280;22617;43.690;27.956;2023-05-02T23:25:38;99640.56;;;10.43;87.05
18697;BME280;22617;43.690;27.956;2023-05-02T23:30:44;99646.50;;;10.24;85.39
18697;BME280;22617;43.690;27.956;2023-05-02T23:35:49;99636.06;;;10.24;85.32
18697;BME280;22617;43.690;27.956;2023-05-02T23:40:55;99624.66;;;10.10;83.90
18697;BME280;22617;43.690;27.956;2023-05-02T23:45:59;99615.94;;;10.05;83.78
18697;BME280;22617;43.690;27.956;2023-05-02T23:51:05;99616.72;;;9.96;82.89
18697;BME280;22617;43.690;27.956;2023-05-02T23:56:11;99597.59;;;9.93;83.11
